Time;durP1;ratioP1;P1;durP2;ratioP2;P2;SDS_P1;SDS_P2;PMS_P1;PMS_P2;Temp;Humidity;BMP_temperature;BMP_pressure;BME280_temperature;BME280_humidity;BME280_pressure;Samples;Min_cycle;Max_cycle;Signal;HPM_P1;HPM_P2
2024/02/21 00:00:45;;;;;;;7.83;5.13;;;13.10;55.00;;;;;;5002697;28;20186;-56
2024/02/21 00:03:11;;;;;;;10.33;3.90;;;13.10;54.90;;;;;;5008254;28;20178;-59
2024/02/21 00:05:37;;;;;;;10.00;4.13;;;13.10;54.90;;;;;;5008128;28;20472;-61
2024/02/21 00:08:05;;;;;;;6.60;4.10;;;13.20;55.00;;;;;;5004627;28;20182;-60
2024/02/21 00:10:32;;;;;;;8.60;3.80;;;13.10;54.90;;;;;;5007858;28;20186;-60
2024/02/21 00:12:59;;;;;;;14.10;5.20;;;13.10;55.00;;;;;;5008700;28;20517;-59
2024/02/21 00:15:25;;;;;;;8.27;4.50;;;13.10;54.90;;;;;;5002882;28;20533;-59
2024/02/21 00:17:50;;;;;;;8.17;4.43;;;13.20;54.90;;;;;;5007328;28;20524;-58
2024/02/21 00:20:17;;;;;;;10.93;4.47;;;13.20;55.20;;;;;;5004314;28;20203;-60
2024/02/21 00:22:43;;;;;;;6.27;3.97;;;13.20;54.60;;;;;;5007750;28;20182;-59
2024/02/21 00:25:08;;;;;;;7.00;4.60;;;13.20;54.60;;;;;;5003263;28;20484;-60
2024/02/21 00:27:34;;;;;;;8.27;4.23;;;13.20;54.80;;;;;;5006245;28;20472;-58
2024/02/21 00:30:00;;;;;;;6.20;3.77;;;13.20;54.70;;;;;;5011927;28;20205;-59
2024/02/21 00:32:25;;;;;;;13.23;5.23;;;13.20;54.60;;;;;;5011543;28;20186;-59
2024/02/21 00:34:51;;;;;;;7.33;4.40;;;13.20;54.60;;;;;;5006678;28;20650;-58
2024/02/21 00:37:16;;;;;;;7.07;4.43;;;13.20;54.60;;;;;;5011269;28;21002;-58
2024/02/21 00:39:42;;;;;;;8.20;4.17;;;13.00;54.70;;;;;;5006877;28;20247;-58
2024/02/21 00:42:08;;;;;;;5.53;3.77;;;13.00;55.00;;;;;;5008614;28;20194;-58
2024/02/21 00:44:33;;;;;;;11.67;4.60;;;12.90;54.90;;;;;;5010332;28;20757;-59
2024/02/21 00:46:59;;;;;;;11.07;4.57;;;12.80;55.30;;;;;;5009492;28;20268;-59
2024/02/21 00:49:24;;;;;;;7.63;4.30;;;12.60;55.40;;;;;;5010714;28;20186;-60
2024/02/21 00:51:50;;;;;;;7.80;4.93;;;12.60;55.70;;;;;;5010243;28;20196;-57
2024/02/21 00:54:16;;;;;;;8.33;4.30;;;12.70;55.60;;;;;;5008557;28;20681;-60
2024/02/21 00:56:42;;;;;;;9.40;4.20;;;12.80;55.40;;;;;;5010642;28;20202;-59
2024/02/21 00:59:08;;;;;;;8.33;4.27;;;12.70;55.20;;;;;;5011675;28;20198;-60
2024/02/21 01:01:33;;;;;;;13.77;4.23;;;12.50;55.50;;;;;;5010851;28;21027;-59
2024/02/21 01:04:00;;;;;;;11.57;4.73;;;12.50;55.90;;;;;;5006905;28;20256;-60
2024/02/21 01:06:26;;;;;;;14.30;4.60;;;12.40;55.90;;;;;;5006882;28;20578;-59
2024/02/21 01:08:51;;;;;;;5.27;3.40;;;12.20;56.10;;;;;;5008137;28;20495;-57
2024/02/21 01:11:17;;;;;;;6.93;4.30;;;11.90;56.80;;;;;;5011238;28;20900;-60
2024/02/21 01:13:43;;;;;;;10.50;4.47;;;11.80;57.20;;;;;;5005199;28;20183;-60
2024/02/21 01:16:09;;;;;;;8.60;4.20;;;11.60;57.50;;;;;;5009586;28;20955;-59
2024/02/21 01:18:37;;;;;;;7.10;4.50;;;11.50;57.80;;;;;;5010847;28;20491;-58
2024/02/21 01:21:06;;;;;;;6.83;3.47;;;11.60;58.10;;;;;;5003373;28;20218;-58
2024/02/21 01:23:35;;;;;;;7.50;4.70;;;11.70;57.90;;;;;;5010092;28;20424;-59
2024/02/21 01:26:01;;;;;;;7.53;3.70;;;11.60;57.90;;;;;;5006280;28;20487;-58
2024/02/21 01:28:26;;;;;;;8.50;4.80;;;11.70;58.00;;;;;;5006202;28;20944;-57
2024/02/21 01:30:52;;;;;;;6.83;3.60;;;11.70;57.70;;;;;;5007118;28;20500;-59
2024/02/21 01:33:18;;;;;;;7.50;4.20;;;11.90;57.50;;;;;;5007777;28;20190;-59
2024/02/21 01:35:44;;;;;;;10.80;3.87;;;11.90;57.40;;;;;;5011061;28;20194;-58
2024/02/21 01:38:10;;;;;;;6.67;3.70;;;12.00;57.20;;;;;;5008642;28;20417;-57
2024/02/21 01:40:37;;;;;;;11.40;4.60;;;12.10;57.30;;;;;;5010664;28;20182;-59
2024/02/21 01:43:03;;;;;;;9.03;4.03;;;12.00;56.50;;;;;;5009464;28;20409;-59
2024/02/21 01:45:28;;;;;;;6.13;4.20;;;11.90;56.90;;;;;;5009104;28;20479;-59
2024/02/21 01:47:54;;;;;;;7.40;3.80;;;12.00;56.90;;;;;;5010454;28;20272;-58
2024/02/21 01:50:22;;;;;;;11.20;4.20;;;11.90;56.70;;;;;;5006259;28;20247;-58
2024/02/21 01:52:49;;;;;;;11.50;3.60;;;11.70;57.20;;;;;;5009842;28;20208;-58
2024/02/21 01:55:16;;;;;;;7.80;4.00;;;11.70;57.10;;;;;;5007001;28;20440;-58
2024/02/21 01:57:42;;;;;;;7.47;3.70;;;11.80;57.10;;;;;;5008026;28;20535;-59
2024/02/21 02:00:10;;;;;;;7.90;4.03;;;12.00;56.70;;;;;;5010188;28;20424;-58
2024/02/21 02:02:37;;;;;;;8.60;3.57;;;12.00;56.60;;;;;;5006967;28;20431;-57
2024/02/21 02:05:03;;;;;;;6.63;3.57;;;12.10;56.30;;;;;;5008996;28;20920;-57
2024/02/21 02:07:29;;;;;;;7.47;3.80;;;12.10;56.30;;;;;;5008103;28;20960;-58
2024/02/21 02:09:54;;;;;;;8.57;4.00;;;12.20;56.20;;;;;;5007125;28;20432;-57
2024/02/21 02:12:20;;;;;;;10.93;4.10;;;12.10;56.90;;;;;;5009949;28;20189;-58
2024/02/21 02:14:46;;;;;;;7.00;4.00;;;12.20;56.20;;;;;;5008800;28;20263;-60
2024/02/21 02:17:12;;;;;;;8.80;4.03;;;12.40;55.90;;;;;;5008394;28;20444;-59
2024/02/21 02:19:37;;;;;;;4.40;3.33;;;12.40;55.60;;;;;;5009587;28;20182;-58
2024/02/21 02:22:17;;;;;;;6.60;3.30;;;12.50;55.50;;;;;;5003077;28;20185;-58
2024/02/21 02:24:43;;;;;;;6.20;3.43;;;12.50;55.40;;;;;;5007558;28;20590;-60
2024/02/21 02:27:09;;;;;;;5.17;3.47;;;12.50;55.10;;;;;;5008561;28;20451;-55
2024/02/21 02:29:34;;;;;;;6.47;3.80;;;12.60;55.20;;;;;;5007378;28;20421;-57
2024/02/21 02:32:00;;;;;;;7.60;4.37;;;12.70;55.10;;;;;;5009711;28;20189;-57
2024/02/21 02:34:26;;;;;;;13.70;4.30;;;12.60;55.00;;;;;;5006395;28;20193;-59
2024/02/21 02:36:51;;;;;;;7.77;3.40;;;12.60;55.30;;;;;;5005158;28;20268;-58
2024/02/21 02:39:17;;;;;;;4.20;3.50;;;12.70;55.20;;;;;;5009242;28;20201;-58
2024/02/21 02:41:42;;;;;;;9.50;4.10;;;12.70;55.70;;;;;;5006562;28;20188;-56
2024/02/21 02:44:08;;;;;;;4.50;3.67;;;12.70;55.10;;;;;;5007121;28;20319;-58
2024/02/21 02:46:34;;;;;;;6.10;3.23;;;12.60;55.00;;;;;;5005969;28;20206;-60
2024/02/21 02:48:59;;;;;;;10.00;4.70;;;12.60;55.10;;;;;;5006083;28;20277;-55
2024/02/21 02:51:25;;;;;;;5.23;3.57;;;12.50;55.20;;;;;;5008579;28;20182;-54
2024/02/21 02:53:50;;;;;;;10.43;4.27;;;12.50;55.40;;;;;;5009181;28;20265;-58
2024/02/21 02:56:16;;;;;;;8.20;3.73;;;12.30;55.80;;;;;;5007949;28;20265;-54
2024/02/21 02:58:43;;;;;;;10.57;3.67;;;12.10;56.20;;;;;;5006687;28;20182;-56
2024/02/21 03:01:08;;;;;;;6.93;3.53;;;12.10;56.20;;;;;;5005641;28;20196;-56
2024/02/21 03:03:34;;;;;;;7.43;3.70;;;12.10;56.20;;;;;;5008377;28;20500;-57
2024/02/21 03:05:59;;;;;;;7.57;3.50;;;12.10;56.60;;;;;;5008456;28;20232;-56
2024/02/21 03:08:25;;;;;;;9.73;4.00;;;12.10;56.80;;;;;;5008180;28;20190;-57
2024/02/21 03:10:51;;;;;;;6.10;3.67;;;12.10;57.20;;;;;;5006182;28;20185;-56
2024/02/21 03:13:16;;;;;;;8.80;3.90;;;12.10;57.20;;;;;;5007810;28;20637;-57
2024/02/21 03:15:42;;;;;;;5.40;3.00;;;11.90;57.00;;;;;;5008888;28;20198;-57
2024/02/21 03:18:08;;;;;;;6.00;3.43;;;12.00;57.30;;;;;;5007440;28;20196;-58
2024/02/21 03:20:33;;;;;;;10.03;4.10;;;12.10;57.10;;;;;;5009394;28;20786;-55
2024/02/21 03:22:59;;;;;;;7.77;3.63;;;12.30;57.10;;;;;;5006739;28;20845;-55
2024/02/21 03:25:24;;;;;;;6.40;2.87;;;12.50;56.80;;;;;;5006485;28;20246;-58
2024/02/21 03:27:50;;;;;;;8.40;3.50;;;12.50;57.20;;;;;;5006928;28;20281;-56
2024/02/21 03:30:15;;;;;;;6.97;3.37;;;12.60;57.70;;;;;;5007223;28;20196;-59
2024/02/21 03:32:41;;;;;;;5.57;3.20;;;12.70;57.40;;;;;;5005566;28;20718;-55
2024/02/21 03:35:07;;;;;;;7.63;3.60;;;12.70;57.30;;;;;;5002996;28;20336;-57
2024/02/21 03:37:32;;;;;;;9.20;3.53;;;12.80;57.30;;;;;;5007289;28;20267;-58
2024/02/21 03:39:58;;;;;;;7.87;4.47;;;12.90;57.60;;;;;;5008812;28;20201;-56
2024/02/21 03:42:23;;;;;;;7.83;3.50;;;12.90;57.50;;;;;;5005080;28;20194;-56
2024/02/21 03:44:49;;;;;;;3.83;3.20;;;12.90;57.40;;;;;;5006807;28;20210;-55
2024/02/21 03:47:15;;;;;;;7.50;3.47;;;12.90;57.30;;;;;;5007416;28;20205;-57
2024/02/21 03:49:40;;;;;;;9.47;4.37;;;12.90;57.10;;;;;;5007345;28;20182;-59
2024/02/21 03:52:06;;;;;;;9.67;4.40;;;12.80;56.20;;;;;;5008049;28;20185;-58
2024/02/21 03:54:31;;;;;;;7.57;3.90;;;12.90;56.00;;;;;;5002588;28;20178;-58
2024/02/21 03:56:57;;;;;;;14.83;4.60;;;12.90;55.80;;;;;;5005903;28;20688;-57
2024/02/21 03:59:22;;;;;;;8.53;4.00;;;12.90;56.10;;;;;;5008116;28;20559;-57
2024/02/21 04:01:54;;;;;;;7.10;4.43;;;13.00;56.20;;;;;;5008199;28;20190;-57
2024/02/21 04:04:20;;;;;;;9.20;4.10;;;13.00;56.10;;;;;;5012070;28;20189;-56
2024/02/21 04:06:50;;;;;;;8.97;3.83;;;13.00;56.20;;;;;;5012156;28;20583;-58
2024/02/21 04:09:15;;;;;;;5.77;3.60;;;13.00;56.20;;;;;;5008698;28;20436;-55
2024/02/21 04:11:41;;;;;;;7.73;4.50;;;13.00;56.00;;;;;;5013019;28;20791;-57
2024/02/21 04:14:07;;;;;;;7.50;3.73;;;13.00;56.10;;;;;;5011936;28;20185;-56
2024/02/21 04:16:32;;;;;;;5.17;3.50;;;13.10;56.30;;;;;;5010597;28;20206;-57
2024/02/21 04:18:58;;;;;;;5.60;3.13;;;13.10;56.30;;;;;;5009965;28;20190;-56
2024/02/21 04:21:24;;;;;;;3.70;2.93;;;13.10;56.20;;;;;;5009335;28;20194;-57
2024/02/21 04:23:49;;;;;;;5.10;3.93;;;13.10;56.40;;;;;;5009321;28;20178;-57
2024/02/21 04:26:15;;;;;;;8.10;3.83;;;12.90;55.70;;;;;;5010553;28;20225;-58
2024/02/21 04:28:40;;;;;;;5.63;3.03;;;12.90;55.70;;;;;;5009499;28;20197;-57
2024/02/21 04:31:06;;;;;;;6.33;3.40;;;12.90;55.60;;;;;;5009638;28;20213;-54
2024/02/21 04:33:32;;;;;;;9.63;3.00;;;12.80;55.40;;;;;;5009531;28;20190;-59
2024/02/21 04:35:58;;;;;;;7.20;3.03;;;12.70;55.40;;;;;;5007501;28;20194;-56
2024/02/21 04:38:24;;;;;;;7.70;3.10;;;12.70;55.40;;;;;;5008710;28;20190;-56
2024/02/21 04:40:49;;;;;;;6.37;3.23;;;12.70;55.10;;;;;;5010742;28;20516;-57
2024/02/21 04:43:15;;;;;;;7.23;2.90;;;12.80;55.40;;;;;;5008676;28;20665;-59
2024/02/21 04:45:41;;;;;;;5.27;3.27;;;12.90;54.90;;;;;;5008260;28;20264;-58
2024/02/21 04:48:06;;;;;;;7.23;2.93;;;12.90;54.70;;;;;;5004116;28;20192;-57
2024/02/21 04:50:32;;;;;;;5.83;2.87;;;13.00;54.90;;;;;;5005708;28;20552;-55
2024/02/21 04:52:57;;;;;;;6.23;3.33;;;13.00;54.90;;;;;;5009852;28;20682;-56
2024/02/21 04:55:23;;;;;;;5.23;3.40;;;13.00;54.90;;;;;;5006229;28;20233;-58
2024/02/21 04:57:49;;;;;;;6.43;3.60;;;12.90;54.60;;;;;;5009280;28;20810;-56
2024/02/21 05:00:15;;;;;;;6.43;3.53;;;12.90;54.20;;;;;;5011094;28;20792;-56
2024/02/21 05:02:40;;;;;;;7.27;3.60;;;12.90;54.20;;;;;;5007124;28;20215;-56
2024/02/21 05:05:06;;;;;;;3.53;2.90;;;12.80;54.70;;;;;;5009282;28;20472;-56
2024/02/21 05:07:32;;;;;;;5.73;2.77;;;12.80;54.60;;;;;;5007964;28;20215;-57
2024/02/21 05:09:57;;;;;;;7.30;3.20;;;12.70;54.30;;;;;;5007195;28;20178;-57
2024/02/21 05:12:23;;;;;;;5.40;3.10;;;12.70;54.00;;;;;;5008874;28;20696;-57
2024/02/21 05:14:48;;;;;;;7.77;2.77;;;12.30;53.80;;;;;;4971664;28;1082967;-56
2024/02/21 05:17:15;;;;;;;9.93;3.20;;;12.20;54.10;;;;;;5008126;28;20210;-56
2024/02/21 05:19:40;;;;;;;7.27;2.77;;;12.40;54.20;;;;;;5011821;28;20189;-55
2024/02/21 05:22:06;;;;;;;7.73;3.00;;;12.50;53.90;;;;;;5009482;28;20417;-59
2024/02/21 05:24:32;;;;;;;6.20;3.03;;;12.70;53.80;;;;;;5010061;28;20221;-56
2024/02/21 05:26:57;;;;;;;7.03;2.80;;;12.70;53.60;;;;;;5008902;28;20584;-57
2024/02/21 05:29:23;;;;;;;10.03;3.57;;;12.80;53.60;;;;;;5011384;28;20186;-59
2024/02/21 05:31:51;;;;;;;11.60;3.60;;;12.80;53.50;;;;;;5011067;28;20177;-57
2024/02/21 05:34:20;;;;;;;8.37;3.10;;;12.80;53.50;;;;;;5010641;28;20178;-56
2024/02/21 05:36:46;;;;;;;5.10;2.93;;;12.70;53.40;;;;;;5009585;28;20452;-57
2024/02/21 05:39:13;;;;;;;6.50;3.23;;;12.70;53.40;;;;;;5005271;28;20417;-57
2024/02/21 05:41:38;;;;;;;4.40;3.90;;;12.70;53.10;;;;;;5006295;28;20567;-60
2024/02/21 05:44:04;;;;;;;6.80;2.60;;;12.70;53.10;;;;;;5008818;28;20449;-56
2024/02/21 05:46:30;;;;;;;6.07;3.10;;;12.70;53.10;;;;;;5008943;28;20308;-58
2024/02/21 05:48:55;;;;;;;7.17;3.17;;;12.60;53.10;;;;;;5006188;28;20209;-56
2024/02/21 05:51:21;;;;;;;5.80;3.40;;;12.50;53.40;;;;;;5011487;28;20618;-57
2024/02/21 05:53:46;;;;;;;5.43;3.27;;;12.50;53.70;;;;;;5008970;28;20225;-55
2024/02/21 05:56:15;;;;;;;6.10;3.00;;;12.40;54.20;;;;;;5007066;28;20205;-55
2024/02/21 05:58:41;;;;;;;6.97;3.50;;;12.20;54.30;;;;;;5008528;28;20182;-56
2024/02/21 06:01:08;;;;;;;7.97;3.73;;;12.10;54.90;;;;;;5010443;28;20423;-57
2024/02/21 06:03:34;;;;;;;5.00;3.20;;;12.00;55.50;;;;;;5009240;28;20190;-56
2024/02/21 06:06:04;;;;;;;6.93;4.00;;;12.00;55.80;;;;;;5010720;28;21028;-55
2024/02/21 06:08:30;;;;;;;5.97;3.70;;;11.70;56.60;;;;;;5003471;28;20417;-56
2024/02/21 06:10:56;;;;;;;8.87;3.20;;;11.60;56.80;;;;;;5009365;28;20845;-57
2024/02/21 06:13:22;;;;;;;9.97;4.40;;;11.50;56.90;;;;;;5003791;28;20213;-57
2024/02/21 06:15:47;;;;;;;7.50;4.10;;;11.40;57.40;;;;;;5007853;28;20205;-57
2024/02/21 06:18:13;;;;;;;6.47;3.93;;;11.50;57.40;;;;;;5009380;28;20190;-57
2024/02/21 06:20:40;;;;;;;6.57;3.97;;;11.70;57.20;;;;;;5012236;28;20420;-59
2024/02/21 06:23:06;;;;;;;8.00;3.50;;;11.80;57.20;;;;;;5009271;28;20186;-57
2024/02/21 06:25:32;;;;;;;4.83;3.53;;;12.00;56.60;;;;;;5010503;28;20480;-57
2024/02/21 06:27:57;;;;;;;6.33;4.13;;;12.20;56.20;;;;;;5010385;28;20445;-59
2024/02/21 06:30:23;;;;;;;5.67;3.43;;;12.30;55.90;;;;;;5011687;28;20208;-56
2024/02/21 06:32:48;;;;;;;11.00;6.13;;;12.40;55.40;;;;;;5008047;28;20269;-58
2024/02/21 06:35:14;;;;;;;7.60;4.20;;;12.40;55.70;;;;;;5007378;28;20186;-55
2024/02/21 06:37:39;;;;;;;8.70;3.63;;;12.40;55.00;;;;;;5006133;28;20842;-57
2024/02/21 06:40:06;;;;;;;6.30;3.53;;;12.50;54.90;;;;;;5010827;28;20186;-59
2024/02/21 06:42:31;;;;;;;8.30;3.50;;;12.50;54.60;;;;;;5008120;28;20185;-56
2024/02/21 06:44:57;;;;;;;7.80;4.50;;;12.60;54.50;;;;;;5010120;28;20477;-57
2024/02/21 06:47:22;;;;;;;4.70;3.77;;;12.60;54.30;;;;;;5003533;28;20210;-59
2024/02/21 06:49:50;;;;;;;7.00;3.97;;;12.70;54.20;;;;;;5004284;28;20198;-59
2024/02/21 06:52:20;;;;;;;5.30;3.57;;;12.80;54.00;;;;;;5010481;28;20264;-60
2024/02/21 06:54:48;;;;;;;4.37;2.93;;;12.90;53.90;;;;;;5009252;28;20447;-58
2024/02/21 06:57:16;;;;;;;8.03;3.50;;;13.00;54.10;;;;;;5008049;28;20457;-58
2024/02/21 06:59:42;;;;;;;4.73;3.20;;;13.10;53.90;;;;;;5009836;28;20436;-59
2024/02/21 07:02:08;;;;;;;5.00;3.07;;;13.30;54.00;;;;;;5007273;28;20452;-57
2024/02/21 07:04:34;;;;;;;4.80;3.20;;;13.50;53.60;;;;;;5009217;28;20241;-58
2024/02/21 07:06:59;;;;;;;8.33;4.07;;;13.60;53.30;;;;;;5006197;28;20218;-58
2024/02/21 07:09:25;;;;;;;6.67;3.10;;;13.70;52.70;;;;;;5009377;28;20289;-57
2024/02/21 07:11:51;;;;;;;6.27;3.30;;;13.90;52.60;;;;;;5007419;28;20186;-58
2024/02/21 07:14:18;;;;;;;6.57;3.33;;;14.00;52.10;;;;;;5007962;28;21180;-57
2024/02/21 07:16:43;;;;;;;5.90;3.17;;;14.00;51.50;;;;;;5007785;28;20204;-60
2024/02/21 07:19:09;;;;;;;5.07;3.40;;;13.70;51.50;;;;;;5009416;28;20493;-59
2024/02/21 07:21:34;;;;;;;7.20;3.17;;;13.70;51.50;;;;;;5005386;28;20205;-60
2024/02/21 07:24:00;;;;;;;7.53;3.47;;;13.70;51.30;;;;;;5008699;28;20678;-60
2024/02/21 07:26:25;;;;;;;5.70;3.00;;;13.50;51.80;;;;;;5007237;28;20223;-60
2024/02/21 07:28:51;;;;;;;5.60;3.00;;;13.20;52.30;;;;;;5008279;28;20238;-59
2024/02/21 07:31:17;;;;;;;6.97;3.30;;;13.10;52.40;;;;;;5008354;28;20182;-59
2024/02/21 07:33:42;;;;;;;6.13;3.30;;;13.10;52.80;;;;;;5006242;28;20191;-60
2024/02/21 07:36:10;;;;;;;9.87;3.60;;;13.40;52.50;;;;;;5006946;28;20601;-60
2024/02/21 07:38:36;;;;;;;5.33;3.00;;;13.90;52.30;;;;;;5004866;28;20609;-60
2024/02/21 07:41:01;;;;;;;6.00;3.37;;;14.30;51.30;;;;;;5011007;28;20433;-59
2024/02/21 07:43:27;;;;;;;7.33;3.40;;;14.50;50.60;;;;;;5009731;28;20217;-59
2024/02/21 07:45:56;;;;;;;6.40;2.93;;;14.80;50.10;;;;;;5007473;28;20221;-59
2024/02/21 07:48:26;;;;;;;7.63;3.30;;;15.00;49.50;;;;;;5006990;28;20271;-59
2024/02/21 07:50:52;;;;;;;4.93;3.80;;;14.80;49.80;;;;;;5008588;28;20512;-59
2024/02/21 07:53:17;;;;;;;8.53;3.80;;;14.80;50.20;;;;;;5009701;28;20523;-59
2024/02/21 07:55:43;;;;;;;9.37;4.73;;;14.70;50.30;;;;;;5005770;28;20277;-60
2024/02/21 07:58:09;;;;;;;8.87;3.40;;;14.60;50.60;;;;;;5008243;28;20228;-60
2024/02/21 08:00:34;;;;;;;8.40;3.40;;;14.60;50.60;;;;;;5007047;28;20197;-59
2024/02/21 08:03:00;;;;;;;5.37;3.40;;;14.30;50.20;;;;;;5010529;28;20189;-59
2024/02/21 08:05:25;;;;;;;9.20;3.60;;;13.90;51.20;;;;;;5008421;28;20697;-59
2024/02/21 08:07:51;;;;;;;3.77;3.40;;;14.00;51.60;;;;;;5008885;28;20635;-60
2024/02/21 08:10:16;;;;;;;5.87;3.30;;;14.20;51.00;;;;;;5011121;28;20185;-60
2024/02/21 08:12:42;;;;;;;6.53;3.67;;;14.50;50.80;;;;;;5016553;28;20186;-60
2024/02/21 08:15:10;;;;;;;9.60;3.70;;;14.40;50.40;;;;;;5009565;28;20588;-59
2024/02/21 08:17:36;;;;;;;6.70;4.00;;;14.40;50.10;;;;;;5006077;28;20210;-58
2024/02/21 08:20:02;;;;;;;7.57;3.73;;;14.50;50.50;;;;;;5006282;28;20689;-60
2024/02/21 08:22:28;;;;;;;5.77;3.20;;;14.60;50.00;;;;;;5009184;28;20457;-57
2024/02/21 08:24:53;;;;;;;6.20;3.90;;;14.80;49.80;;;;;;5006876;28;20515;-60
2024/02/21 08:27:19;;;;;;;6.30;3.00;;;15.00;49.90;;;;;;5008239;28;20667;-60
2024/02/21 08:29:45;;;;;;;6.47;3.50;;;15.00;49.50;;;;;;5009938;28;20187;-60
2024/02/21 08:32:10;;;;;;;7.13;3.40;;;15.00;49.40;;;;;;5009160;28;20188;-58
2024/02/21 08:34:36;;;;;;;11.00;3.77;;;15.10;49.40;;;;;;5005847;28;20191;-59
2024/02/21 08:37:02;;;;;;;9.73;3.37;;;15.10;49.40;;;;;;5009452;28;20294;-59
2024/02/21 08:39:29;;;;;;;3.43;2.83;;;15.00;49.20;;;;;;5010769;28;20186;-58
2024/02/21 08:41:55;;;;;;;6.20;3.27;;;15.00;49.80;;;;;;5002339;28;20182;-58
2024/02/21 08:44:25;;;;;;;6.10;2.93;;;15.00;49.50;;;;;;5009775;28;20886;-61
2024/02/21 08:46:51;;;;;;;13.77;3.33;;;15.10;49.30;;;;;;5005491;28;20284;-59
2024/02/21 08:49:16;;;;;;;13.90;4.10;;;15.20;49.40;;;;;;5008562;28;21257;-59
2024/02/21 08:51:43;;;;;;;6.10;2.97;;;15.20;49.20;;;;;;5014531;28;20320;-61
2024/02/21 08:54:08;;;;;;;9.93;3.73;;;15.20;49.40;;;;;;5012676;28;20681;-59
2024/02/21 08:56:35;;;;;;;2.90;2.60;;;15.40;49.10;;;;;;5011941;28;20463;-60
2024/02/21 08:59:00;;;;;;;6.03;2.53;;;15.40;48.80;;;;;;5014047;28;20224;-60
2024/02/21 09:01:26;;;;;;;6.00;2.73;;;15.40;48.00;;;;;;5011392;28;20436;-60
2024/02/21 09:03:53;;;;;;;7.80;3.17;;;15.30;47.90;;;;;;5009939;28;20264;-60
2024/02/21 09:06:19;;;;;;;6.23;2.50;;;15.20;47.80;;;;;;5013594;28;20213;-58
2024/02/21 09:08:45;;;;;;;8.10;2.97;;;15.10;48.00;;;;;;5007225;28;20422;-60
2024/02/21 09:11:11;;;;;;;5.47;3.03;;;15.20;48.70;;;;;;5012510;28;20445;-59
2024/02/21 09:13:37;;;;;;;6.10;2.87;;;15.20;48.70;;;;;;5010827;28;20461;-59
2024/02/21 09:16:03;;;;;;;6.90;3.30;;;15.30;48.50;;;;;;5013021;28;20269;-60
2024/02/21 09:18:29;;;;;;;5.10;2.87;;;15.40;48.50;;;;;;5011584;28;20219;-60
2024/02/21 09:20:55;;;;;;;5.87;2.43;;;15.40;48.00;;;;;;5011327;28;20436;-58
2024/02/21 09:23:20;;;;;;;5.87;2.63;;;15.40;48.20;;;;;;5006987;28;20448;-59
2024/02/21 09:25:46;;;;;;;11.27;3.53;;;15.50;48.00;;;;;;5010695;28;21090;-59
2024/02/21 09:28:13;;;;;;;7.50;3.10;;;15.50;47.90;;;;;;5010898;28;20196;-60
2024/02/21 09:30:38;;;;;;;2.90;2.47;;;15.50;47.90;;;;;;5013601;28;20182;-60
2024/02/21 09:33:04;;;;;;;4.50;2.80;;;15.40;47.70;;;;;;5011074;28;20443;-59
2024/02/21 09:35:31;;;;;;;7.83;2.70;;;15.40;47.80;;;;;;5013573;28;20649;-60
2024/02/21 09:37:56;;;;;;;5.97;2.50;;;15.20;47.40;;;;;;5008884;28;20449;-59
2024/02/21 09:40:22;;;;;;;5.53;2.50;;;15.10;47.50;;;;;;5012902;28;20424;-59
2024/02/21 09:42:48;;;;;;;5.63;2.33;;;15.10;47.50;;;;;;5011818;28;20186;-59
2024/02/21 09:45:21;;;;;;;5.57;2.50;;;15.00;47.30;;;;;;5012375;28;20222;-59
2024/02/21 09:48:12;;;;;;;7.33;3.33;;;14.60;47.90;;;;;;5009611;28;20480;-60
2024/02/21 09:50:43;;;;;;;9.23;2.70;;;14.70;48.00;;;;;;5010526;28;20798;-60
2024/02/21 09:53:11;;;;;;;4.13;2.30;;;14.80;47.90;;;;;;5009489;28;20437;-60
2024/02/21 09:55:40;;;;;;;4.70;2.70;;;14.90;47.90;;;;;;5008111;28;20463;-60
2024/02/21 09:58:05;;;;;;;3.80;2.40;;;15.20;48.20;;;;;;5010201;28;20520;-59
2024/02/21 10:00:31;;;;;;;3.53;2.60;;;15.40;47.70;;;;;;5005233;28;20505;-60
2024/02/21 10:02:58;;;;;;;4.50;2.60;;;15.50;47.50;;;;;;5008133;28;20197;-59
2024/02/21 10:05:24;;;;;;;5.63;2.60;;;15.70;47.30;;;;;;5018348;28;20303;-59
2024/02/21 10:07:51;;;;;;;9.50;2.70;;;15.80;46.70;;;;;;5008831;28;20448;-58
2024/02/21 10:10:21;;;;;;;4.27;2.03;;;15.70;46.50;;;;;;5004743;28;20828;-60
2024/02/21 10:12:56;;;;;;;5.27;2.40;;;15.60;46.70;;;;;;5006593;28;20441;-60
2024/02/21 10:15:23;;;;;;;6.13;2.67;;;15.40;46.50;;;;;;5006265;28;20499;-58
2024/02/21 10:18:00;;;;;;;6.50;2.63;;;15.40;47.10;;;;;;5009543;28;20547;-58
2024/02/21 10:20:25;;;;;;;3.40;2.33;;;15.40;46.70;;;;;;5001282;28;20449;-56
2024/02/21 10:23:08;;;;;;;4.57;2.33;;;15.60;46.60;;;;;;5006861;28;20449;-60
2024/02/21 10:25:34;;;;;;;4.07;2.20;;;15.90;46.80;;;;;;5001604;28;20594;-58
2024/02/21 10:27:59;;;;;;;6.60;2.10;;;16.00;46.50;;;;;;5004526;28;20519;-60
2024/02/21 10:30:25;;;;;;;4.33;2.10;;;16.20;46.20;;;;;;5003204;28;20651;-59
2024/02/21 10:32:54;;;;;;;4.40;2.43;;;16.40;46.10;;;;;;5003898;28;20283;-58
2024/02/21 10:35:36;;;;;;;4.37;2.43;;;16.70;45.90;;;;;;5003362;28;20190;-59
2024/02/21 10:38:03;;;;;;;5.50;2.37;;;16.90;45.50;;;;;;5007151;28;20873;-60
2024/02/21 10:40:30;;;;;;;5.63;2.60;;;16.80;44.40;;;;;;5006268;28;20436;-59
2024/02/21 10:42:58;;;;;;;7.63;3.27;;;17.00;44.40;;;;;;5007679;28;21010;-59
2024/02/21 10:45:45;;;;;;;6.30;2.77;;;17.00;44.30;;;;;;5007943;28;20480;-59
2024/02/21 10:48:13;;;;;;;4.30;2.80;;;16.90;44.70;;;;;;5005449;28;20859;-59
2024/02/21 10:50:56;;;;;;;4.80;2.37;;;17.00;45.00;;;;;;5007994;28;20967;-59
2024/02/21 10:53:57;;;;;;;5.87;2.70;;;17.00;44.50;;;;;;5008425;28;20441;-59
2024/02/21 10:56:30;;;;;;;3.80;2.23;;;17.20;44.30;;;;;;5008647;28;20453;-58
2024/02/21 10:58:58;;;;;;;6.80;2.63;;;17.30;44.50;;;;;;5005765;28;20473;-59
2024/02/21 11:01:26;;;;;;;4.77;2.47;;;17.30;43.60;;;;;;5009415;28;20944;-60
2024/02/21 11:03:55;;;;;;;4.90;2.33;;;17.20;43.70;;;;;;5008702;28;20508;-60
2024/02/21 11:06:22;;;;;;;4.20;2.20;;;17.10;44.00;;;;;;5007722;28;20484;-60
2024/02/21 11:08:58;;;;;;;4.80;3.10;;;17.30;43.70;;;;;;5007329;28;20449;-60
2024/02/21 11:11:24;;;;;;;4.40;2.43;;;17.40;43.60;;;;;;5007507;28;20447;-59
2024/02/21 11:13:49;;;;;;;5.97;2.13;;;17.50;42.90;;;;;;5006213;28;20440;-59
2024/02/21 11:16:22;;;;;;;4.00;2.13;;;17.50;42.40;;;;;;5006626;28;20222;-59
2024/02/21 11:18:49;;;;;;;5.30;2.33;;;17.60;41.70;;;;;;5006479;28;20213;-60
2024/02/21 11:21:14;;;;;;;5.60;1.77;;;17.60;41.60;;;;;;5010015;28;20786;-59
2024/02/21 11:23:40;;;;;;;4.63;1.60;;;17.60;41.10;;;;;;5006271;28;20439;-59
2024/02/21 11:26:08;;;;;;;5.70;1.87;;;17.40;41.20;;;;;;5009828;28;20213;-59
2024/02/21 11:28:34;;;;;;;3.40;1.60;;;17.40;40.60;;;;;;5005724;28;20201;-59
2024/02/21 11:31:13;;;;;;;3.13;1.70;;;17.60;40.60;;;;;;5002496;28;20463;-58
2024/02/21 11:33:41;;;;;;;4.17;2.10;;;17.60;40.70;;;;;;5004929;28;20501;-59
2024/02/21 11:36:07;;;;;;;2.80;1.40;;;17.60;39.70;;;;;;5005805;28;20607;-59
2024/02/21 11:38:33;;;;;;;4.40;1.87;;;17.60;39.50;;;;;;5004515;28;20433;-59
2024/02/21 11:40:58;;;;;;;5.23;1.73;;;17.50;40.20;;;;;;5006953;28;20432;-59
2024/02/21 11:43:25;;;;;;;4.80;1.70;;;17.60;40.60;;;;;;5009363;28;20738;-59
2024/02/21 11:45:51;;;;;;;3.10;1.90;;;17.60;39.50;;;;;;5007904;28;20305;-60
2024/02/21 11:48:16;;;;;;;3.83;1.50;;;17.50;39.50;;;;;;5004730;28;20540;-59
2024/02/21 11:50:42;;;;;;;4.03;1.63;;;17.60;39.40;;;;;;5002634;28;20188;-58
2024/02/21 11:53:07;;;;;;;4.20;2.57;;;17.60;39.40;;;;;;5005169;28;20196;-58
2024/02/21 11:55:34;;;;;;;5.53;2.17;;;17.50;39.70;;;;;;5004298;28;20186;-59
2024/02/21 11:57:59;;;;;;;2.60;1.93;;;17.40;39.90;;;;;;5005086;28;20564;-60
2024/02/21 12:00:26;;;;;;;5.90;1.97;;;17.50;39.20;;;;;;5002786;28;20437;-59
2024/02/21 12:02:51;;;;;;;5.40;1.90;;;17.50;38.80;;;;;;5005239;28;20722;-59
2024/02/21 12:05:19;;;;;;;3.87;1.80;;;17.60;39.00;;;;;;5007189;28;20615;-59
2024/02/21 12:07:45;;;;;;;2.70;1.50;;;17.70;39.00;;;;;;5007264;28;20201;-59
2024/02/21 12:10:11;;;;;;;6.00;1.87;;;17.80;38.70;;;;;;5006900;28;20435;-59
2024/02/21 12:12:38;;;;;;;3.30;1.70;;;17.70;38.60;;;;;;5007820;28;20877;-58
2024/02/21 12:15:05;;;;;;;3.20;2.13;;;17.70;38.30;;;;;;5006066;28;20464;-57
2024/02/21 12:17:36;;;;;;;3.50;1.40;;;17.70;38.10;;;;;;5005187;28;20456;-59
2024/02/21 12:20:08;;;;;;;2.70;1.50;;;17.80;38.20;;;;;;5002401;28;20499;-60
2024/02/21 12:22:35;;;;;;;3.90;2.07;;;17.90;38.20;;;;;;5005930;28;20441;-59
2024/02/21 12:25:15;;;;;;;5.27;1.60;;;18.10;38.40;;;;;;5011036;28;20482;-58
2024/02/21 12:27:41;;;;;;;2.57;1.60;;;18.10;38.00;;;;;;5008636;28;20460;-57
2024/02/21 12:30:09;;;;;;;5.33;1.60;;;18.10;37.90;;;;;;5011802;28;20452;-57
2024/02/21 12:32:35;;;;;;;2.10;1.37;;;18.20;37.70;;;;;;5010429;28;20194;-60
2024/02/21 12:35:02;;;;;;;3.90;1.43;;;18.10;37.50;;;;;;5006169;28;20455;-60
2024/02/21 12:37:27;;;;;;;3.77;1.83;;;18.20;37.20;;;;;;5006934;28;20472;-60
2024/02/21 12:39:53;;;;;;;3.60;1.77;;;18.20;37.10;;;;;;5009742;28;20446;-59
2024/02/21 12:42:19;;;;;;;4.63;1.63;;;18.30;37.20;;;;;;5009493;28;20194;-59